sensor_id;sensor_type;location;lat;lon;timestamp;pressure;altitude;pressure_sealevel;temperature;humidity
63556;BME280;49700;48.072;7.800;2024-03-22T00:00:05;100233.56;;;13.26;60.67
63556;BME280;49700;48.072;7.800;2024-03-22T00:02:38;100222.19;;;13.26;60.76
63556;BME280;49700;48.072;7.800;2024-03-22T00:05:04;100225.72;;;13.25;60.71
63556;BME280;49700;48.072;7.800;2024-03-22T00:07:29;100217.16;;;13.21;60.62
63556;BME280;49700;48.072;7.800;2024-03-22T00:09:55;100217.34;;;13.18;61.33
63556;BME280;49700;48.072;7.800;2024-03-22T00:12:22;100221.13;;;13.14;61.55
63556;BME280;49700;48.072;7.800;2024-03-22T00:14:51;100213.41;;;13.11;61.42
63556;BME280;49700;48.072;7.800;2024-03-22T00:17:19;100214.66;;;13.05;61.57
63556;BME280;49700;48.072;7.800;2024-03-22T00:19:45;100210.34;;;13.04;61.67
63556;BME280;49700;48.072;7.800;2024-03-22T00:22:10;100219.19;;;13.03;61.57
63556;BME280;49700;48.072;7.800;2024-03-22T00:24:35;100216.53;;;13.03;61.53
63556;BME280;49700;48.072;7.800;2024-03-22T00:27:01;100222.75;;;13.02;61.54
63556;BME280;49700;48.072;7.800;2024-03-22T00:29:26;100229.84;;;13.02;61.61
63556;BME280;49700;48.072;7.800;2024-03-22T00:31:52;100216.75;;;13.00;61.70
63556;BME280;49700;48.072;7.800;2024-03-22T00:34:17;100222.22;;;12.97;61.76
63556;BME280;49700;48.072;7.800;2024-03-22T00:36:43;100223.25;;;12.95;62.01
63556;BME280;49700;48.072;7.800;2024-03-22T00:39:08;100226.72;;;12.95;62.48
63556;BME280;49700;48.072;7.800;2024-03-22T00:41:33;100220.63;;;12.95;62.46
63556;BME280;49700;48.072;7.800;2024-03-22T00:43:59;100216.19;;;12.95;62.58
63556;BME280;49700;48.072;7.800;2024-03-22T00:46:24;100220.06;;;12.90;62.41
63556;BME280;49700;48.072;7.800;2024-03-22T00:48:50;100219.41;;;12.86;62.63
63556;BME280;49700;48.072;7.800;2024-03-22T00:51:15;100215.25;;;12.82;62.64
63556;BME280;49700;48.072;7.800;2024-03-22T00:53:40;100215.75;;;12.74;62.88
63556;BME280;49700;48.072;7.800;2024-03-22T00:56:06;100208.34;;;12.67;63.09
63556;BME280;49700;48.072;7.800;2024-03-22T00:58:31;100209.75;;;12.58;63.28
63556;BME280;49700;48.072;7.800;2024-03-22T01:00:57;100200.34;;;12.54;63.50
63556;BME280;49700;48.072;7.800;2024-03-22T01:03:22;100196.19;;;12.50;63.47
63556;BME280;49700;48.072;7.800;2024-03-22T01:05:48;100191.97;;;12.47;63.67
63556;BME280;49700;48.072;7.800;2024-03-22T01:08:14;100196.38;;;12.47;63.67
63556;BME280;49700;48.072;7.800;2024-03-22T01:10:40;100185.84;;;12.47;63.60
63556;BME280;49700;48.072;7.800;2024-03-22T01:13:05;100190.28;;;12.46;63.96
63556;BME280;49700;48.072;7.800;2024-03-22T01:15:31;100183.22;;;12.47;63.81
63556;BME280;49700;48.072;7.800;2024-03-22T01:17:57;100185.00;;;12.46;63.83
63556;BME280;49700;48.072;7.800;2024-03-22T01:20:22;100185.97;;;12.45;63.73
63556;BME280;49700;48.072;7.800;2024-03-22T01:22:48;100186.81;;;12.46;63.89
63556;BME280;49700;48.072;7.800;2024-03-22T01:25:13;100185.09;;;12.45;63.98
63556;BME280;49700;48.072;7.800;2024-03-22T01:27:38;100177.19;;;12.45;63.92
63556;BME280;49700;48.072;7.800;2024-03-22T01:30:04;100172.13;;;12.42;64.11
63556;BME280;49700;48.072;7.800;2024-03-22T01:32:30;100174.09;;;12.38;64.14
63556;BME280;49700;48.072;7.800;2024-03-22T01:34:57;100181.44;;;12.33;64.24
63556;BME280;49700;48.072;7.800;2024-03-22T01:37:22;100185.94;;;12.31;64.43
63556;BME280;49700;48.072;7.800;2024-03-22T01:39:48;100173.66;;;12.31;65.08
63556;BME280;49700;48.072;7.800;2024-03-22T01:42:13;100163.19;;;12.30;65.04
63556;BME280;49700;48.072;7.800;2024-03-22T01:44:38;100155.28;;;12.30;65.02
63556;BME280;49700;48.072;7.800;2024-03-22T01:47:04;100151.81;;;12.29;64.93
63556;BME280;49700;48.072;7.800;2024-03-22T01:49:30;100150.09;;;12.28;64.88
63556;BME280;49700;48.072;7.800;2024-03-22T01:51:55;100145.22;;;12.22;64.89
63556;BME280;49700;48.072;7.800;2024-03-22T01:54:21;100144.59;;;12.18;65.12
63556;BME280;49700;48.072;7.800;2024-03-22T01:56:47;100142.88;;;12.17;65.25
63556;BME280;49700;48.072;7.800;2024-03-22T01:59:13;100139.50;;;12.15;65.22
63556;BME280;49700;48.072;7.800;2024-03-22T02:01:39;100138.75;;;12.13;65.22
63556;BME280;49700;48.072;7.800;2024-03-22T02:04:06;100131.03;;;12.10;65.47
63556;BME280;49700;48.072;7.800;2024-03-22T02:06:31;100128.75;;;12.04;65.44
63556;BME280;49700;48.072;7.800;2024-03-22T02:08:57;100123.88;;;11.98;65.65
63556;BME280;49700;48.072;7.800;2024-03-22T02:11:23;100125.94;;;11.93;65.91
63556;BME280;49700;48.072;7.800;2024-03-22T02:13:49;100132.16;;;11.92;65.84
63556;BME280;49700;48.072;7.800;2024-03-22T02:16:14;100131.41;;;11.90;65.87
63556;BME280;49700;48.072;7.800;2024-03-22T02:18:40;100130.63;;;11.88;66.00
63556;BME280;49700;48.072;7.800;2024-03-22T02:21:05;100130.63;;;11.88;66.07
63556;BME280;49700;48.072;7.800;2024-03-22T02:23:34;100126.31;;;11.87;66.05
63556;BME280;49700;48.072;7.800;2024-03-22T02:26:00;100124.66;;;11.86;66.19
63556;BME280;49700;48.072;7.800;2024-03-22T02:28:26;100129.91;;;11.86;66.21
63556;BME280;49700;48.072;7.800;2024-03-22T02:30:51;100126.38;;;11.85;66.20
63556;BME280;49700;48.072;7.800;2024-03-22T02:33:17;100116.75;;;11.86;66.16
63556;BME280;49700;48.072;7.800;2024-03-22T02:35:42;100112.47;;;11.83;66.23
63556;BME280;49700;48.072;7.800;2024-03-22T02:38:08;100108.06;;;11.84;66.18
63556;BME280;49700;48.072;7.800;2024-03-22T02:40:33;100113.41;;;11.82;66.28
63556;BME280;49700;48.072;7.800;2024-03-22T02:42:59;100117.81;;;11.82;66.39
63556;BME280;49700;48.072;7.800;2024-03-22T02:45:25;100115.19;;;11.82;66.43
63556;BME280;49700;48.072;7.800;2024-03-22T02:47:50;100109.84;;;11.83;66.46
63556;BME280;49700;48.072;7.800;2024-03-22T02:50:15;100101.84;;;11.85;66.51
63556;BME280;49700;48.072;7.800;2024-03-22T02:52:41;100104.44;;;11.86;66.33
63556;BME280;49700;48.072;7.800;2024-03-22T02:55:06;100102.69;;;11.85;66.46
63556;BME280;49700;48.072;7.800;2024-03-22T02:57:33;100101.94;;;11.83;66.60
63556;BME280;49700;48.072;7.800;2024-03-22T03:00:00;100087.19;;;11.81;66.63
63556;BME280;49700;48.072;7.800;2024-03-22T03:02:25;100088.22;;;11.78;66.54
63556;BME280;49700;48.072;7.800;2024-03-22T03:04:51;100087.47;;;11.76;66.74
63556;BME280;49700;48.072;7.800;2024-03-22T03:07:16;100082.28;;;11.74;66.80
63556;BME280;49700;48.072;7.800;2024-03-22T03:09:42;100079.75;;;11.73;66.83
63556;BME280;49700;48.072;7.800;2024-03-22T03:12:07;100075.53;;;11.70;66.90
63556;BME280;49700;48.072;7.800;2024-03-22T03:14:32;100068.59;;;11.69;66.90
63556;BME280;49700;48.072;7.800;2024-03-22T03:16:58;100067.72;;;11.69;66.99
63556;BME280;49700;48.072;7.800;2024-03-22T03:19:23;100074.69;;;11.70;66.97
63556;BME280;49700;48.072;7.800;2024-03-22T03:21:49;100062.44;;;11.69;66.84
63556;BME280;49700;48.072;7.800;2024-03-22T03:24:14;100071.09;;;11.71;66.84
63556;BME280;49700;48.072;7.800;2024-03-22T03:26:40;100075.44;;;11.72;66.82
63556;BME280;49700;48.072;7.800;2024-03-22T03:29:06;100071.75;;;11.74;66.71
63556;BME280;49700;48.072;7.800;2024-03-22T03:31:31;100071.59;;;11.78;66.49
63556;BME280;49700;48.072;7.800;2024-03-22T03:33:56;100068.84;;;11.79;66.61
63556;BME280;49700;48.072;7.800;2024-03-22T03:36:22;100068.84;;;11.79;66.52
63556;BME280;49700;48.072;7.800;2024-03-22T03:38:47;100073.66;;;11.72;66.90
63556;BME280;49700;48.072;7.800;2024-03-22T03:41:13;100064.25;;;11.68;66.99
63556;BME280;49700;48.072;7.800;2024-03-22T03:43:38;100064.25;;;11.68;66.88
63556;BME280;49700;48.072;7.800;2024-03-22T03:46:03;100065.75;;;11.72;66.83
63556;BME280;49700;48.072;7.800;2024-03-22T03:48:29;100062.19;;;11.73;66.85
63556;BME280;49700;48.072;7.800;2024-03-22T03:50:56;100057.69;;;11.76;66.81
63556;BME280;49700;48.072;7.800;2024-03-22T03:53:24;100050.53;;;11.78;66.69
63556;BME280;49700;48.072;7.800;2024-03-22T03:55:50;100048.63;;;11.80;66.70
63556;BME280;49700;48.072;7.800;2024-03-22T03:58:15;100048.56;;;11.81;66.66
63556;BME280;49700;48.072;7.800;2024-03-22T04:00:43;100050.22;;;11.82;66.69
63556;BME280;49700;48.072;7.800;2024-03-22T04:03:08;100046.56;;;11.85;66.64
63556;BME280;49700;48.072;7.800;2024-03-22T04:05:34;100052.03;;;11.82;66.77
63556;BME280;49700;48.072;7.800;2024-03-22T04:07:59;100043.38;;;11.80;66.82
63556;BME280;49700;48.072;7.800;2024-03-22T04:10:25;100045.09;;;11.81;66.85
63556;BME280;49700;48.072;7.800;2024-03-22T04:12:50;100048.47;;;11.83;66.77
63556;BME280;49700;48.072;7.800;2024-03-22T04:15:15;100042.25;;;11.84;66.99
63556;BME280;49700;48.072;7.800;2024-03-22T04:17:41;100051.78;;;11.86;66.90
63556;BME280;49700;48.072;7.800;2024-03-22T04:20:06;100043.78;;;11.88;66.80
63556;BME280;49700;48.072;7.800;2024-03-22T04:22:34;100050.00;;;11.87;66.87
63556;BME280;49700;48.072;7.800;2024-03-22T04:24:59;100050.16;;;11.84;66.98
63556;BME280;49700;48.072;7.800;2024-03-22T04:27:25;100047.72;;;11.81;67.28
63556;BME280;49700;48.072;7.800;2024-03-22T04:29:50;100042.66;;;11.78;67.38
63556;BME280;49700;48.072;7.800;2024-03-22T04:32:15;100045.44;;;11.74;67.48
63556;BME280;49700;48.072;7.800;2024-03-22T04:34:42;100047.34;;;11.72;67.54
63556;BME280;49700;48.072;7.800;2024-03-22T04:37:07;100054.41;;;11.72;67.64
63556;BME280;49700;48.072;7.800;2024-03-22T04:39:33;100052.59;;;11.72;67.67
63556;BME280;49700;48.072;7.800;2024-03-22T04:41:58;100057.03;;;11.72;67.69
63556;BME280;49700;48.072;7.800;2024-03-22T04:44:23;100055.22;;;11.72;67.85
63556;BME280;49700;48.072;7.800;2024-03-22T04:46:50;100048.38;;;11.70;68.05
63556;BME280;49700;48.072;7.800;2024-03-22T04:49:15;100051.28;;;11.65;67.95
63556;BME280;49700;48.072;7.800;2024-03-22T04:51:41;100050.44;;;11.65;68.15
63556;BME280;49700;48.072;7.800;2024-03-22T04:54:06;100044.22;;;11.66;68.25
63556;BME280;49700;48.072;7.800;2024-03-22T04:56:32;100040.88;;;11.64;68.12
63556;BME280;49700;48.072;7.800;2024-03-22T04:58:57;100032.09;;;11.63;68.37
63556;BME280;49700;48.072;7.800;2024-03-22T05:01:22;100037.47;;;11.62;68.44
63556;BME280;49700;48.072;7.800;2024-03-22T05:03:49;100024.31;;;11.62;68.37
63556;BME280;49700;48.072;7.800;2024-03-22T05:06:15;100021.97;;;11.57;68.26
63556;BME280;49700;48.072;7.800;2024-03-22T05:08:40;100026.47;;;11.55;68.43
63556;BME280;49700;48.072;7.800;2024-03-22T05:11:07;100028.25;;;11.55;68.39
63556;BME280;49700;48.072;7.800;2024-03-22T05:13:33;100028.25;;;11.55;68.26
63556;BME280;49700;48.072;7.800;2024-03-22T05:15:58;100035.03;;;11.59;68.33
63556;BME280;49700;48.072;7.800;2024-03-22T05:18:23;100028.75;;;11.61;68.21
63556;BME280;49700;48.072;7.800;2024-03-22T05:20:49;100030.34;;;11.64;68.25
63556;BME280;49700;48.072;7.800;2024-03-22T05:23:14;100022.34;;;11.65;68.20
63556;BME280;49700;48.072;7.800;2024-03-22T05:25:42;100026.63;;;11.66;67.93
63556;BME280;49700;48.072;7.800;2024-03-22T05:28:08;100026.63;;;11.66;67.84
63556;BME280;49700;48.072;7.800;2024-03-22T05:30:33;100017.00;;;11.67;67.92
63556;BME280;49700;48.072;7.800;2024-03-22T05:32:58;100017.81;;;11.67;67.87
63556;BME280;49700;48.072;7.800;2024-03-22T05:35:24;100022.97;;;11.69;67.89
63556;BME280;49700;48.072;7.800;2024-03-22T05:37:49;100015.84;;;11.71;67.92
63556;BME280;49700;48.072;7.800;2024-03-22T05:40:16;100020.84;;;11.76;67.73
63556;BME280;49700;48.072;7.800;2024-03-22T05:42:42;100021.41;;;11.81;67.77
63556;BME280;49700;48.072;7.800;2024-03-22T05:45:07;100018.41;;;11.87;67.68
63556;BME280;49700;48.072;7.800;2024-03-22T05:47:33;100012.94;;;11.90;67.51
63556;BME280;49700;48.072;7.800;2024-03-22T05:49:59;100016.34;;;11.92;67.44
63556;BME280;49700;48.072;7.800;2024-03-22T05:52:25;100016.22;;;11.93;67.31
63556;BME280;49700;48.072;7.800;2024-03-22T05:54:51;100014.47;;;11.94;67.41
63556;BME280;49700;48.072;7.800;2024-03-22T05:57:16;100020.28;;;11.99;67.39
63556;BME280;49700;48.072;7.800;2024-03-22T05:59:42;100012.91;;;12.04;67.22
63556;BME280;49700;48.072;7.800;2024-03-22T06:02:07;100016.84;;;12.11;66.98
63556;BME280;49700;48.072;7.800;2024-03-22T06:04:33;100011.50;;;12.13;67.04
63556;BME280;49700;48.072;7.800;2024-03-22T06:06:58;100017.34;;;12.18;66.86
63556;BME280;49700;48.072;7.800;2024-03-22T06:09:27;100015.13;;;12.25;66.88
63556;BME280;49700;48.072;7.800;2024-03-22T06:12:05;100012.00;;;12.32;67.09
63556;BME280;49700;48.072;7.800;2024-03-22T06:14:31;100009.19;;;12.35;66.59
63556;BME280;49700;48.072;7.800;2024-03-22T06:16:57;99996.75;;;12.37;66.51
63556;BME280;49700;48.072;7.800;2024-03-22T06:19:23;100001.00;;;12.40;66.36
63556;BME280;49700;48.072;7.800;2024-03-22T06:21:48;99987.81;;;12.40;66.22
63556;BME280;49700;48.072;7.800;2024-03-22T06:24:14;100001.00;;;12.40;66.19
63556;BME280;49700;48.072;7.800;2024-03-22T06:26:39;99994.88;;;12.39;65.99
63556;BME280;49700;48.072;7.800;2024-03-22T06:29:05;99981.59;;;12.41;66.15
63556;BME280;49700;48.072;7.800;2024-03-22T06:31:31;99983.47;;;12.39;66.04
63556;BME280;49700;48.072;7.800;2024-03-22T06:33:56;99983.47;;;12.39;66.20
63556;BME280;49700;48.072;7.800;2024-03-22T06:36:28;99986.84;;;12.41;65.91
63556;BME280;49700;48.072;7.800;2024-03-22T06:38:54;99992.88;;;12.43;65.83
63556;BME280;49700;48.072;7.800;2024-03-22T06:41:19;99987.59;;;12.43;66.02
63556;BME280;49700;48.072;7.800;2024-03-22T06:43:44;99991.91;;;12.44;65.96
63556;BME280;49700;48.072;7.800;2024-03-22T06:46:10;99995.09;;;12.49;65.86
63556;BME280;49700;48.072;7.800;2024-03-22T06:48:35;99985.88;;;12.56;65.53
63556;BME280;49700;48.072;7.800;2024-03-22T06:51:00;99983.03;;;12.59;65.32
63556;BME280;49700;48.072;7.800;2024-03-22T06:53:26;99987.34;;;12.60;65.18
63556;BME280;49700;48.072;7.800;2024-03-22T06:55:52;99988.09;;;12.62;64.89
63556;BME280;49700;48.072;7.800;2024-03-22T06:58:17;99985.25;;;12.66;64.90
63556;BME280;49700;48.072;7.800;2024-03-22T07:00:43;99986.63;;;12.71;64.77
63556;BME280;49700;48.072;7.800;2024-03-22T07:03:08;99985.38;;;12.77;64.49
63556;BME280;49700;48.072;7.800;2024-03-22T07:05:34;99982.44;;;12.81;64.33
63556;BME280;49700;48.072;7.800;2024-03-22T07:07:59;99974.97;;;12.88;64.01
63556;BME280;49700;48.072;7.800;2024-03-22T07:10:25;99976.22;;;12.95;64.02
63556;BME280;49700;48.072;7.800;2024-03-22T07:12:56;99978.56;;;13.00;63.72
63556;BME280;49700;48.072;7.800;2024-03-22T07:15:23;99977.31;;;13.05;63.45
63556;BME280;49700;48.072;7.800;2024-03-22T07:17:49;99977.72;;;13.12;63.14
63556;BME280;49700;48.072;7.800;2024-03-22T07:20:14;99974.47;;;13.21;63.02
63556;BME280;49700;48.072;7.800;2024-03-22T07:22:40;99972.16;;;13.30;62.81
63556;BME280;49700;48.072;7.800;2024-03-22T07:25:05;99977.75;;;13.38;62.54
63556;BME280;49700;48.072;7.800;2024-03-22T07:27:31;99985.38;;;13.42;62.21
63556;BME280;49700;48.072;7.800;2024-03-22T07:29:57;99975.97;;;13.51;62.08
63556;BME280;49700;48.072;7.800;2024-03-22T07:32:22;99971.59;;;13.63;61.55
63556;BME280;49700;48.072;7.800;2024-03-22T07:34:48;99981.72;;;13.69;61.59
63556;BME280;49700;48.072;7.800;2024-03-22T07:37:13;99990.81;;;13.78;61.39
63556;BME280;49700;48.072;7.800;2024-03-22T07:39:38;99987.63;;;13.85;61.31
63556;BME280;49700;48.072;7.800;2024-03-22T07:42:04;99987.94;;;13.93;60.81
63556;BME280;49700;48.072;7.800;2024-03-22T07:44:29;99987.34;;;14.01;60.74
63556;BME280;49700;48.072;7.800;2024-03-22T07:46:55;99982.50;;;14.08;60.67
63556;BME280;49700;48.072;7.800;2024-03-22T07:49:21;99989.03;;;14.15;60.55
63556;BME280;49700;48.072;7.800;2024-03-22T07:51:46;99978.00;;;14.21;60.03
63556;BME280;49700;48.072;7.800;2024-03-22T07:54:12;99981.78;;;14.30;59.58
63556;BME280;49700;48.072;7.800;2024-03-22T07:56:37;99977.88;;;14.47;59.20
63556;BME280;49700;48.072;7.800;2024-03-22T07:59:02;99976.91;;;15.07;57.94
63556;BME280;49700;48.072;7.800;2024-03-22T08:01:28;99970.69;;;15.98;55.62
63556;BME280;49700;48.072;7.800;2024-03-22T08:03:53;99955.25;;;17.00;52.77
63556;BME280;49700;48.072;7.800;2024-03-22T08:06:19;99951.75;;;17.91;50.73
63556;BME280;49700;48.072;7.800;2024-03-22T08:08:44;99944.56;;;18.91;48.38
63556;BME280;49700;48.072;7.800;2024-03-22T08:11:10;99933.22;;;19.63;46.67
63556;BME280;49700;48.072;7.800;2024-03-22T08:13:36;99930.38;;;20.20;44.49
63556;BME280;49700;48.072;7.800;2024-03-22T08:16:01;99930.53;;;20.54;43.50
63556;BME280;49700;48.072;7.800;2024-03-22T08:18:27;99928.03;;;20.97;42.86
63556;BME280;49700;48.072;7.800;2024-03-22T08:20:55;99914.47;;;21.42;41.96
63556;BME280;49700;48.072;7.800;2024-03-22T08:23:21;99915.75;;;21.73;40.87
63556;BME280;49700;48.072;7.800;2024-03-22T08:25:48;99920.63;;;21.85;39.99
63556;BME280;49700;48.072;7.800;2024-03-22T08:28:13;99920.19;;;21.98;38.92
63556;BME280;49700;48.072;7.800;2024-03-22T08:30:39;99913.97;;;22.06;38.73
63556;BME280;49700;48.072;7.800;2024-03-22T08:33:05;99902.38;;;22.31;38.43
63556;BME280;49700;48.072;7.800;2024-03-22T08:35:30;99901.03;;;22.68;37.92
63556;BME280;49700;48.072;7.800;2024-03-22T08:37:56;99905.19;;;22.87;37.45
63556;BME280;49700;48.072;7.800;2024-03-22T08:40:22;99902.34;;;22.81;36.99
63556;BME280;49700;48.072;7.800;2024-03-22T08:42:48;99891.28;;;22.92;36.78
63556;BME280;49700;48.072;7.800;2024-03-22T08:45:13;99884.25;;;23.07;36.07
63556;BME280;49700;48.072;7.800;2024-03-22T08:47:39;99882.22;;;23.09;35.86
63556;BME280;49700;48.072;7.800;2024-03-22T08:50:06;99878.34;;;23.20;35.67
63556;BME280;49700;48.072;7.800;2024-03-22T08:55:14;99876.69;;;23.58;34.78
63556;BME280;49700;48.072;7.800;2024-03-22T08:57:39;99869.84;;;23.48;34.92
63556;BME280;49700;48.072;7.800;2024-03-22T09:00:05;99868.78;;;23.57;34.92
63556;BME280;49700;48.072;7.800;2024-03-22T09:02:33;99864.50;;;23.79;34.83
63556;BME280;49700;48.072;7.800;2024-03-22T09:04:59;99862.94;;;23.93;34.26
63556;BME280;49700;48.072;7.800;2024-03-22T09:07:25;99859.66;;;24.05;34.23
63556;BME280;49700;48.072;7.800;2024-03-22T09:09:50;99863.66;;;24.10;34.32
63556;BME280;49700;48.072;7.800;2024-03-22T09:12:16;99865.44;;;23.94;34.45
63556;BME280;49700;48.072;7.800;2024-03-22T09:17:07;99862.78;;;23.55;34.92
63556;BME280;49700;48.072;7.800;2024-03-22T09:19:32;99856.00;;;23.36;34.94
63556;BME280;49700;48.072;7.800;2024-03-22T09:21:58;99851.41;;;23.05;35.48
63556;BME280;49700;48.072;7.800;2024-03-22T09:24:23;99862.00;;;22.90;35.71
63556;BME280;49700;48.072;7.800;2024-03-22T09:26:49;99852.16;;;22.74;35.97
63556;BME280;49700;48.072;7.800;2024-03-22T09:29:15;99853.84;;;22.59;36.21
63556;BME280;49700;48.072;7.800;2024-03-22T09:31:40;99851.00;;;22.52;36.76
63556;BME280;49700;48.072;7.800;2024-03-22T09:34:06;99851.84;;;22.53;36.78
63556;BME280;49700;48.072;7.800;2024-03-22T09:36:31;99848.69;;;22.49;37.29
63556;BME280;49700;48.072;7.800;2024-03-22T09:39:01;99840.63;;;22.58;37.40
63556;BME280;49700;48.072;7.800;2024-03-22T09:41:26;99834.09;;;22.52;37.63
63556;BME280;49700;48.072;7.800;2024-03-22T09:43:55;99837.66;;;22.28;38.03
63556;BME280;49700;48.072;7.800;2024-03-22T09:46:23;99829.25;;;22.06;38.26
63556;BME280;49700;48.072;7.800;2024-03-22T09:48:49;99830.38;;;21.79;38.20
63556;BME280;49700;48.072;7.800;2024-03-22T09:51:21;99828.84;;;21.60;38.56
63556;BME280;49700;48.072;7.800;2024-03-22T09:53:48;99829.91;;;21.33;39.06
63556;BME280;49700;48.072;7.800;2024-03-22T09:56:15;99822.25;;;21.04;39.13
63556;BME280;49700;48.072;7.800;2024-03-22T09:58:41;99823.81;;;20.81;39.82
63556;BME280;49700;48.072;7.800;2024-03-22T10:01:07;99827.44;;;20.71;39.81
63556;BME280;49700;48.072;7.800;2024-03-22T10:03:32;99826.28;;;20.74;39.94
63556;BME280;49700;48.072;7.800;2024-03-22T10:05:58;99822.19;;;20.88;39.80
63556;BME280;49700;48.072;7.800;2024-03-22T10:08:23;99814.56;;;21.01;39.34
63556;BME280;49700;48.072;7.800;2024-03-22T10:10:49;99808.72;;;21.06;39.35
63556;BME280;49700;48.072;7.800;2024-03-22T10:13:14;99805.94;;;21.15;38.72
63556;BME280;49700;48.072;7.800;2024-03-22T10:15:40;99806.44;;;21.19;38.22
63556;BME280;49700;48.072;7.800;2024-03-22T10:18:05;99803.25;;;21.07;38.40
63556;BME280;49700;48.072;7.800;2024-03-22T10:20:30;99802.88;;;21.02;38.48
63556;BME280;49700;48.072;7.800;2024-03-22T10:22:57;99797.56;;;21.10;38.44
63556;BME280;49700;48.072;7.800;2024-03-22T10:25:25;99793.44;;;21.24;38.54
63556;BME280;49700;48.072;7.800;2024-03-22T10:27:50;99784.53;;;21.41;38.20
63556;BME280;49700;48.072;7.800;2024-03-22T10:30:16;99794.41;;;21.57;38.06
63556;BME280;49700;48.072;7.800;2024-03-22T10:32:43;99781.91;;;21.66;36.98
63556;BME280;49700;48.072;7.800;2024-03-22T10:35:12;99781.22;;;21.56;37.55
63556;BME280;49700;48.072;7.800;2024-03-22T10:37:40;99775.19;;;21.54;37.78
63556;BME280;49700;48.072;7.800;2024-03-22T10:40:06;99773.00;;;21.57;37.67
63556;BME280;49700;48.072;7.800;2024-03-22T10:42:35;99773.34;;;21.62;37.38
63556;BME280;49700;48.072;7.800;2024-03-22T10:45:04;99770.34;;;21.65;37.44
63556;BME280;49700;48.072;7.800;2024-03-22T10:47:31;99762.84;;;21.61;36.68
63556;BME280;49700;48.072;7.800;2024-03-22T10:50:17;99759.16;;;21.54;36.18
63556;BME280;49700;48.072;7.800;2024-03-22T10:52:45;99754.81;;;21.61;36.49
63556;BME280;49700;48.072;7.800;2024-03-22T10:55:34;99747.31;;;21.64;36.60
63556;BME280;49700;48.072;7.800;2024-03-22T10:58:00;99750.31;;;21.53;37.03
63556;BME280;49700;48.072;7.800;2024-03-22T11:00:29;99742.94;;;21.47;37.16
63556;BME280;49700;48.072;7.800;2024-03-22T11:02:55;99743.44;;;21.51;36.69
63556;BME280;49700;48.072;7.800;2024-03-22T11:05:21;99734.09;;;21.55;36.34
63556;BME280;49700;48.072;7.800;2024-03-22T11:07:46;99736.13;;;21.61;36.32
63556;BME280;49700;48.072;7.800;2024-03-22T11:10:13;99726.59;;;21.67;36.09
63556;BME280;49700;48.072;7.800;2024-03-22T11:12:39;99724.06;;;21.65;36.01
63556;BME280;49700;48.072;7.800;2024-03-22T11:15:05;99715.56;;;21.61;35.95
63556;BME280;49700;48.072;7.800;2024-03-22T11:17:30;99717.41;;;21.69;35.33
63556;BME280;49700;48.072;7.800;2024-03-22T11:19:56;99715.91;;;21.67;34.79
63556;BME280;49700;48.072;7.800;2024-03-22T11:22:22;99708.56;;;21.52;35.08
63556;BME280;49700;48.072;7.800;2024-03-22T11:24:52;99712.03;;;21.45;34.75
63556;BME280;49700;48.072;7.800;2024-03-22T11:27:17;99708.69;;;21.42;34.45
63556;BME280;49700;48.072;7.800;2024-03-22T11:29:44;99707.34;;;21.38;34.23
63556;BME280;49700;48.072;7.800;2024-03-22T11:32:15;99702.81;;;21.31;34.23
63556;BME280;49700;48.072;7.800;2024-03-22T11:34:40;99696.31;;;21.33;34.09
63556;BME280;49700;48.072;7.800;2024-03-22T11:37:06;99685.81;;;21.40;33.66
63556;BME280;49700;48.072;7.800;2024-03-22T11:39:36;99677.63;;;21.41;32.94
63556;BME280;49700;48.072;7.800;2024-03-22T11:42:05;99680.63;;;21.47;33.29
63556;BME280;49700;48.072;7.800;2024-03-22T11:44:32;99675.94;;;21.40;32.68
63556;BME280;49700;48.072;7.800;2024-03-22T11:46:57;99668.28;;;21.37;31.91
63556;BME280;49700;48.072;7.800;2024-03-22T11:49:24;99657.06;;;21.34;30.89
63556;BME280;49700;48.072;7.800;2024-03-22T11:51:51;99661.88;;;21.30;31.27
63556;BME280;49700;48.072;7.800;2024-03-22T11:54:19;99650.41;;;21.38;30.88
63556;BME280;49700;48.072;7.800;2024-03-22T11:56:45;99649.22;;;21.49;30.61
63556;BME280;49700;48.072;7.800;2024-03-22T11:59:10;99642.03;;;21.57;29.12
63556;BME280;49700;48.072;7.800;2024-03-22T12:01:36;99639.06;;;21.60;28.58
63556;BME280;49700;48.072;7.800;2024-03-22T12:04:01;99639.69;;;21.62;28.32
63556;BME280;49700;48.072;7.800;2024-03-22T12:06:27;99628.84;;;21.64;28.47
63556;BME280;49700;48.072;7.800;2024-03-22T12:08:52;99631.53;;;21.64;27.52
63556;BME280;49700;48.072;7.800;2024-03-22T12:11:18;99626.53;;;21.61;27.16
63556;BME280;49700;48.072;7.800;2024-03-22T12:13:44;99617.16;;;21.65;26.86
63556;BME280;49700;48.072;7.800;2024-03-22T12:16:10;99621.50;;;21.66;26.62
63556;BME280;49700;48.072;7.800;2024-03-22T12:18:35;99612.63;;;21.74;26.66
63556;BME280;49700;48.072;7.800;2024-03-22T12:21:01;99607.44;;;21.80;26.58
63556;BME280;49700;48.072;7.800;2024-03-22T12:23:27;99596.06;;;21.86;26.36
63556;BME280;49700;48.072;7.800;2024-03-22T12:25:53;99593.72;;;21.92;25.60
63556;BME280;49700;48.072;7.800;2024-03-22T12:28:20;99583.84;;;21.92;25.51
63556;BME280;49700;48.072;7.800;2024-03-22T12:30:46;99580.19;;;21.85;25.71
63556;BME280;49700;48.072;7.800;2024-03-22T12:33:12;99575.69;;;21.77;25.93
63556;BME280;49700;48.072;7.800;2024-03-22T12:35:40;99566.19;;;21.75;26.00
63556;BME280;49700;48.072;7.800;2024-03-22T12:38:06;99560.34;;;21.71;25.45
63556;BME280;49700;48.072;7.800;2024-03-22T12:40:34;99562.69;;;21.66;24.80
63556;BME280;49700;48.072;7.800;2024-03-22T12:42:59;99551.47;;;21.71;24.67
63556;BME280;49700;48.072;7.800;2024-03-22T12:45:25;99546.44;;;21.84;24.41
63556;BME280;49700;48.072;7.800;2024-03-22T12:47:51;99542.38;;;21.96;24.48
63556;BME280;49700;48.072;7.800;2024-03-22T12:50:16;99540.00;;;22.09;23.52
63556;BME280;49700;48.072;7.800;2024-03-22T12:52:41;99533.94;;;22.16;22.60